Time;durP1;ratioP1;P1;durP2;ratioP2;P2;SDS_P1;SDS_P2;PMS_P1;PMS_P2;Temp;Humidity;BMP_temperature;BMP_pressure;BME280_temperature;BME280_humidity;BME280_pressure;Samples;Min_cycle;Max_cycle;Signal;HPM_P1;HPM_P2
2020/12/01 00:01:09;;;;;;;44.33;24.33;;;3.70;98.30;;;;;;5141290;23;20868;-81
2020/12/01 00:03:11;;;;;;;43.58;24.95;;;3.70;98.30;;;;;;5149862;23;20281;-81
2020/12/01 00:05:15;;;;;;;39.78;24.13;;;3.70;98.30;;;;;;5149706;23;20673;-81
2020/12/01 00:07:17;;;;;;;37.63;24.25;;;3.70;98.30;;;;;;5141494;23;20209;-80
2020/12/01 00:09:19;;;;;;;36.53;23.98;;;3.70;98.30;;;;;;5149549;23;20524;-81
2020/12/01 00:11:21;;;;;;;39.88;23.98;;;3.70;98.30;;;;;;5142248;23;20206;-80
2020/12/01 00:13:23;;;;;;;42.58;22.90;;;3.70;98.30;;;;;;5143381;23;20760;-80
2020/12/01 00:15:25;;;;;;;43.78;25.02;;;3.70;98.30;;;;;;5142958;23;20625;-80
2020/12/01 00:17:27;;;;;;;41.95;24.00;;;3.80;98.30;;;;;;5142698;23;20654;-81
2020/12/01 00:19:29;;;;;;;38.05;23.58;;;3.80;98.30;;;;;;5149753;23;20201;-80
2020/12/01 00:21:30;;;;;;;38.45;22.85;;;3.80;98.30;;;;;;5140576;23;20206;-80
2020/12/01 00:23:32;;;;;;;39.20;23.25;;;3.80;98.30;;;;;;5141491;23;20288;-80
2020/12/01 00:25:35;;;;;;;48.13;25.85;;;3.90;98.30;;;;;;5141595;23;20201;-81
2020/12/01 00:27:37;;;;;;;37.63;21.83;;;3.90;98.30;;;;;;5141879;23;20779;-81
2020/12/01 00:29:39;;;;;;;37.30;22.77;;;3.90;98.30;;;;;;5149922;23;20939;-81
2020/12/01 00:31:43;;;;;;;37.65;23.52;;;3.90;98.30;;;;;;5141172;23;20288;-81
2020/12/01 00:33:45;;;;;;;40.42;24.42;;;3.90;98.30;;;;;;5141069;23;20860;-80
2020/12/01 00:35:47;;;;;;;42.08;25.17;;;3.90;98.30;;;;;;5149082;23;20205;-81
2020/12/01 00:37:49;;;;;;;39.88;21.25;;;3.90;98.30;;;;;;5149159;23;20258;-81
2020/12/01 00:39:51;;;;;;;35.47;21.33;;;3.90;98.30;;;;;;5140885;23;20704;-81
2020/12/01 00:41:54;;;;;;;39.63;22.13;;;4.00;98.30;;;;;;5140059;23;20206;-81
2020/12/01 00:43:56;;;;;;;45.25;25.27;;;4.00;98.30;;;;;;5142129;23;20285;-82
2020/12/01 00:45:58;;;;;;;42.47;24.95;;;4.00;98.30;;;;;;5149666;23;20600;-81
2020/12/01 00:48:00;;;;;;;41.85;23.85;;;4.00;98.30;;;;;;5142546;23;20209;-82
2020/12/01 00:50:04;;;;;;;42.72;22.60;;;4.10;98.30;;;;;;5142587;23;20213;-81
2020/12/01 00:52:06;;;;;;;38.15;22.77;;;4.00;98.30;;;;;;5150569;23;20202;-81
2020/12/01 00:54:08;;;;;;;44.45;24.40;;;4.00;98.30;;;;;;5142264;23;20722;-81
2020/12/01 00:56:11;;;;;;;34.88;21.70;;;4.00;98.30;;;;;;5152427;23;20293;-81
2020/12/01 00:58:14;;;;;;;42.42;22.70;;;4.00;98.30;;;;;;5152167;23;20228;-81
2020/12/01 01:00:19;;;;;;;40.10;20.63;;;4.00;98.30;;;;;;5151901;23;20217;-81
2020/12/01 01:02:21;;;;;;;37.60;20.10;;;4.00;98.30;;;;;;5152157;23;20213;-82
2020/12/01 01:04:23;;;;;;;42.92;23.98;;;4.10;98.30;;;;;;5144053;23;20210;-81
2020/12/01 01:06:24;;;;;;;39.75;23.20;;;4.10;98.30;;;;;;5143587;23;20212;-81
2020/12/01 01:08:26;;;;;;;39.35;23.02;;;4.10;98.30;;;;;;5151349;23;20285;-81
2020/12/01 01:10:30;;;;;;;42.80;23.30;;;4.10;98.30;;;;;;5144211;23;20681;-81
2020/12/01 01:12:34;;;;;;;41.67;24.20;;;4.00;98.30;;;;;;5151801;23;20202;-82
2020/12/01 01:14:38;;;;;;;44.67;26.48;;;4.00;98.30;;;;;;5144353;23;20492;-81
2020/12/01 01:16:41;;;;;;;34.23;20.33;;;4.00;98.30;;;;;;5152253;23;20232;-81
2020/12/01 01:18:44;;;;;;;39.85;24.10;;;4.00;98.30;;;;;;5152147;23;20446;-82
2020/12/01 01:20:46;;;;;;;37.20;22.65;;;4.10;98.30;;;;;;5153003;23;20959;-82
2020/12/01 01:22:48;;;;;;;36.90;18.00;;;4.10;98.30;;;;;;5157215;23;20257;-81
2020/12/01 01:24:49;;;;;;;40.60;20.08;;;4.00;98.30;;;;;;5150854;23;20547;-80
2020/12/01 01:26:53;;;;;;;44.30;22.08;;;4.10;98.30;;;;;;5143316;23;20206;-80
2020/12/01 01:28:55;;;;;;;43.47;25.87;;;4.10;98.30;;;;;;5142652;23;20217;-80
2020/12/01 01:30:58;;;;;;;47.45;25.83;;;4.10;98.30;;;;;;5142764;23;20779;-80
2020/12/01 01:33:00;;;;;;;40.25;21.33;;;4.10;98.30;;;;;;5151825;23;20205;-81
2020/12/01 01:35:02;;;;;;;49.22;25.23;;;4.10;98.30;;;;;;5143538;23;20292;-80
2020/12/01 01:37:04;;;;;;;44.30;24.73;;;4.10;98.30;;;;;;5151635;23;20203;-81
2020/12/01 01:39:07;;;;;;;45.20;25.60;;;4.10;98.30;;;;;;5151962;23;20960;-80
2020/12/01 01:41:09;;;;;;;46.88;25.63;;;4.10;98.30;;;;;;5151512;23;20237;-80
2020/12/01 01:43:11;;;;;;;49.75;26.83;;;4.10;98.30;;;;;;5143379;23;20266;-80
2020/12/01 01:45:14;;;;;;;50.65;24.40;;;4.10;98.30;;;;;;5142323;23;20221;-80
2020/12/01 01:47:20;;;;;;;51.63;27.48;;;4.10;98.30;;;;;;5151475;23;20237;-80
2020/12/01 01:49:29;;;;;;;44.45;25.92;;;4.10;98.30;;;;;;5143093;23;20292;-81
2020/12/01 01:51:32;;;;;;;45.92;25.92;;;4.10;98.30;;;;;;5151385;23;20212;-81
2020/12/01 01:53:45;;;;;;;48.10;26.33;;;4.10;98.30;;;;;;5150952;23;20204;-80
2020/12/01 01:55:48;;;;;;;54.13;26.30;;;4.10;98.30;;;;;;5143102;23;20536;-81
2020/12/01 01:57:53;;;;;;;48.72;26.90;;;4.10;98.30;;;;;;5151523;23;20207;-80
2020/12/01 01:59:56;;;;;;;51.00;28.95;;;4.10;98.30;;;;;;5151152;23;20206;-81
2020/12/01 02:02:00;;;;;;;48.33;24.70;;;4.10;98.30;;;;;;5143133;23;20229;-81
2020/12/01 02:04:05;;;;;;;45.22;25.48;;;4.10;98.30;;;;;;5142545;23;20210;-81
2020/12/01 02:06:16;;;;;;;50.33;29.40;;;4.10;98.30;;;;;;5150725;23;20725;-82
2020/12/01 02:08:18;;;;;;;49.97;26.98;;;4.10;98.30;;;;;;5151010;23;20236;-81
2020/12/01 02:10:20;;;;;;;51.90;29.02;;;4.20;98.30;;;;;;5151118;23;20670;-81
2020/12/01 02:12:23;;;;;;;55.33;29.80;;;4.20;98.30;;;;;;5142570;23;20202;-81
2020/12/01 02:14:29;;;;;;;50.30;22.02;;;4.10;98.30;;;;;;5150972;23;20198;-81
2020/12/01 02:16:31;;;;;;;48.83;25.00;;;4.20;98.30;;;;;;5142935;23;20313;-81
2020/12/01 02:18:36;;;;;;;49.10;24.75;;;4.10;98.30;;;;;;5150442;23;20229;-81
2020/12/01 02:20:38;;;;;;;53.47;27.10;;;4.10;98.30;;;;;;5142265;23;20589;-81
2020/12/01 02:22:44;;;;;;;56.78;27.30;;;4.20;98.30;;;;;;5143077;23;20257;-82
2020/12/01 02:24:47;;;;;;;53.80;25.60;;;4.20;98.30;;;;;;5142774;23;20285;-81
2020/12/01 02:26:53;;;;;;;43.95;22.42;;;4.20;98.30;;;;;;5152168;23;20208;-81
2020/12/01 02:28:56;;;;;;;51.67;31.90;;;4.20;98.30;;;;;;5150545;23;20270;-81
2020/12/01 02:30:58;;;;;;;55.97;29.23;;;4.20;98.30;;;;;;5144488;23;20300;-82
2020/12/01 02:32:59;;;;;;;49.03;28.75;;;4.20;98.30;;;;;;5145163;23;20661;-81
2020/12/01 02:35:03;;;;;;;46.13;26.83;;;4.10;98.30;;;;;;5142472;23;20285;-81
2020/12/01 02:37:06;;;;;;;60.22;29.55;;;4.10;98.30;;;;;;5142503;23;20744;-81
2020/12/01 02:39:11;;;;;;;57.22;30.25;;;4.10;98.30;;;;;;5150594;23;20205;-79
2020/12/01 02:41:12;;;;;;;51.63;26.83;;;4.10;98.30;;;;;;5150201;23;20530;-78
2020/12/01 02:43:15;;;;;;;51.03;28.75;;;4.20;98.30;;;;;;5150512;23;20202;-80
2020/12/01 02:45:18;;;;;;;51.50;28.80;;;4.20;98.30;;;;;;5150319;23;20205;-81
2020/12/01 02:47:20;;;;;;;54.63;28.95;;;4.20;98.30;;;;;;5149945;23;20731;-82
2020/12/01 02:49:22;;;;;;;45.65;23.77;;;4.10;98.30;;;;;;5150021;23;20727;-79
2020/12/01 02:51:24;;;;;;;56.10;30.00;;;4.20;98.30;;;;;;5149918;23;20551;-80
2020/12/01 02:53:26;;;;;;;61.00;32.10;;;4.20;98.30;;;;;;5142254;23;20543;-81
2020/12/01 02:55:28;;;;;;;53.22;26.38;;;4.20;98.30;;;;;;5150192;23;20229;-81
2020/12/01 02:57:30;;;;;;;52.00;29.30;;;4.20;98.30;;;;;;5150572;23;20204;-83
2020/12/01 02:59:32;;;;;;;50.42;26.73;;;4.10;98.30;;;;;;5141924;23;20217;-79
2020/12/01 03:01:34;;;;;;;53.50;28.20;;;4.20;98.30;;;;;;5150058;23;20209;-80
2020/12/01 03:03:36;;;;;;;56.70;29.55;;;4.20;98.30;;;;;;5150318;23;20212;-79
2020/12/01 03:05:38;;;;;;;53.65;30.65;;;4.20;98.30;;;;;;5150753;23;20205;-81
2020/12/01 03:07:40;;;;;;;49.58;25.08;;;4.20;98.30;;;;;;5149081;23;20542;-87
2020/12/01 03:09:43;;;;;;;51.78;25.75;;;4.20;98.30;;;;;;5141048;23;20212;-78
2020/12/01 03:11:45;;;;;;;40.50;23.17;;;4.20;98.30;;;;;;5141078;23;20213;-82
2020/12/01 03:13:47;;;;;;;55.45;28.35;;;4.20;98.30;;;;;;5141549;23;20284;-79
2020/12/01 03:15:50;;;;;;;58.78;30.17;;;4.30;98.30;;;;;;5148759;23;20210;-79
2020/12/01 03:17:53;;;;;;;59.92;31.33;;;4.20;98.30;;;;;;5149075;23;20790;-78
2020/12/01 03:19:54;;;;;;;54.35;24.52;;;4.20;98.30;;;;;;5150278;23;20198;-79
2020/12/01 03:21:56;;;;;;;48.10;24.50;;;4.20;98.30;;;;;;5149593;23;20280;-79
2020/12/01 03:23:58;;;;;;;52.60;28.48;;;4.20;98.30;;;;;;5150390;23;20605;-81
2020/12/01 03:26:01;;;;;;;58.78;27.05;;;4.20;98.30;;;;;;5150056;23;20276;-78
2020/12/01 03:28:03;;;;;;;54.90;29.50;;;4.10;98.30;;;;;;5150037;23;20573;-80
2020/12/01 03:30:06;;;;;;;56.88;28.70;;;4.20;98.30;;;;;;5142270;23;20206;-80
2020/12/01 03:32:09;;;;;;;50.38;28.05;;;4.10;98.30;;;;;;5142866;23;20238;-79
2020/12/01 03:34:11;;;;;;;49.13;27.23;;;4.20;98.30;;;;;;5150810;23;20618;-81
2020/12/01 03:36:14;;;;;;;54.00;29.20;;;4.20;98.30;;;;;;5142488;23;20202;-80
2020/12/01 03:38:17;;;;;;;51.67;24.35;;;4.20;98.30;;;;;;5150816;23;20228;-80
2020/12/01 03:40:18;;;;;;;50.13;28.98;;;4.20;98.30;;;;;;5150396;23;20209;-80
2020/12/01 03:42:20;;;;;;;54.13;28.30;;;4.20;98.30;;;;;;5151291;23;20202;-82
2020/12/01 03:44:22;;;;;;;56.13;29.77;;;4.20;98.30;;;;;;5150393;23;20281;-79
2020/12/01 03:46:25;;;;;;;50.22;24.30;;;4.20;98.30;;;;;;5141875;23;20202;-79
2020/12/01 03:48:29;;;;;;;54.50;30.50;;;4.20;98.30;;;;;;5141197;23;20214;-80
2020/12/01 03:50:31;;;;;;;52.50;27.10;;;4.20;98.30;;;;;;5150273;23;20205;-82
2020/12/01 03:52:32;;;;;;;52.92;29.95;;;4.20;98.30;;;;;;5149648;23;20210;-79
2020/12/01 03:54:35;;;;;;;47.63;24.17;;;4.20;98.30;;;;;;5149786;23;20205;-79
2020/12/01 03:56:36;;;;;;;53.20;27.67;;;4.20;98.30;;;;;;5150358;23;20236;-80
2020/12/01 03:58:39;;;;;;;49.38;27.00;;;4.20;98.30;;;;;;5150166;23;20216;-78
2020/12/01 04:00:41;;;;;;;50.40;26.77;;;4.10;98.30;;;;;;5149665;23;20329;-80
2020/12/01 04:02:44;;;;;;;52.38;24.73;;;4.10;98.30;;;;;;5141063;23;20217;-79
2020/12/01 04:04:47;;;;;;;58.50;26.77;;;4.20;98.30;;;;;;5141613;23;20241;-79
2020/12/01 04:06:49;;;;;;;44.53;22.52;;;4.10;98.30;;;;;;5150914;23;20229;-79
2020/12/01 04:08:50;;;;;;;47.60;22.58;;;4.10;98.30;;;;;;5149990;23;20824;-81
2020/12/01 04:10:52;;;;;;;50.55;26.90;;;4.20;98.30;;;;;;5149878;23;20225;-80
2020/12/01 04:12:55;;;;;;;51.15;24.38;;;4.10;98.30;;;;;;5150565;23;20197;-81
2020/12/01 04:14:57;;;;;;;52.70;24.13;;;4.10;98.30;;;;;;5150331;23;20205;-80
2020/12/01 04:16:59;;;;;;;49.70;27.23;;;4.10;98.30;;;;;;5150262;23;20198;-80
2020/12/01 04:19:01;;;;;;;50.92;25.38;;;4.10;98.30;;;;;;5149843;23;20204;-80
2020/12/01 04:21:03;;;;;;;46.53;25.90;;;4.10;98.30;;;;;;5143218;23;20966;-80
2020/12/01 04:23:05;;;;;;;45.53;23.65;;;4.20;98.30;;;;;;5151636;23;20233;-81
2020/12/01 04:25:09;;;;;;;51.97;24.70;;;4.20;98.30;;;;;;5151752;23;20288;-81
2020/12/01 04:27:12;;;;;;;53.38;25.23;;;4.10;98.30;;;;;;5143493;23;20206;-81
2020/12/01 04:29:14;;;;;;;50.70;23.60;;;4.10;98.30;;;;;;5150774;23;20288;-80
2020/12/01 04:31:17;;;;;;;49.97;24.85;;;4.10;98.30;;;;;;5150346;23;20232;-80
2020/12/01 04:33:19;;;;;;;52.78;25.58;;;4.10;98.30;;;;;;5151030;23;20236;-79
2020/12/01 04:35:22;;;;;;;51.90;23.92;;;4.10;98.30;;;;;;5150874;23;20212;-79
2020/12/01 04:37:25;;;;;;;53.42;30.02;;;4.10;98.30;;;;;;5151294;23;20276;-79
2020/12/01 04:39:28;;;;;;;56.05;30.17;;;4.10;98.30;;;;;;5150525;23;20203;-80
2020/12/01 04:41:30;;;;;;;56.35;28.85;;;4.10;98.30;;;;;;5150921;23;20201;-81
2020/12/01 04:43:35;;;;;;;46.55;22.60;;;4.10;98.30;;;;;;5151722;23;20624;-81
2020/12/01 04:45:38;;;;;;;52.35;25.50;;;4.10;98.30;;;;;;5150843;23;20230;-80
2020/12/01 04:47:52;;;;;;;50.42;28.13;;;4.10;98.30;;;;;;5143067;23;20205;-81
2020/12/01 04:50:00;;;;;;;54.33;29.27;;;4.20;98.30;;;;;;5144322;23;20224;-81
2020/12/01 04:52:14;;;;;;;56.47;29.42;;;4.10;98.30;;;;;;5144529;23;20236;-80
2020/12/01 04:54:53;;;;;;;56.38;30.50;;;4.10;98.30;;;;;;5150491;23;20268;-81
2020/12/01 04:57:27;;;;;;;62.38;30.08;;;4.10;98.30;;;;;;5154049;23;20272;-80
2020/12/01 04:59:55;;;;;;;45.60;24.70;;;4.10;98.30;;;;;;5146715;23;20241;-80
2020/12/01 05:02:26;;;;;;;49.80;27.75;;;4.20;98.30;;;;;;5156228;23;20202;-80
2020/12/01 05:04:33;;;;;;;50.30;27.63;;;4.10;98.30;;;;;;5146572;23;20257;-81
2020/12/01 05:06:53;;;;;;;48.13;22.70;;;4.10;98.30;;;;;;5154058;23;20232;-79
2020/12/01 05:08:58;;;;;;;55.58;26.20;;;4.10;98.30;;;;;;5153641;23;20212;-80
2020/12/01 05:11:09;;;;;;;56.80;29.48;;;4.10;98.30;;;;;;5153377;23;20205;-80
2020/12/01 05:13:18;;;;;;;52.63;29.20;;;4.00;98.30;;;;;;5150860;23;20281;-81
2020/12/01 05:15:24;;;;;;;51.97;23.35;;;4.10;98.30;;;;;;5150811;23;20811;-79
2020/12/01 05:18:00;;;;;;;48.85;22.63;;;4.10;98.30;;;;;;5150686;23;20280;-79
2020/12/01 05:20:04;;;;;;;50.42;27.25;;;4.10;98.30;;;;;;5133897;23;20552;-83
2020/12/01 05:22:06;;;;;;;47.13;21.73;;;4.10;98.30;;;;;;5150869;23;20202;-80
2020/12/01 05:24:08;;;;;;;47.08;25.83;;;4.10;98.30;;;;;;5150465;23;20213;-82
2020/12/01 05:26:13;;;;;;;46.10;20.98;;;4.20;98.30;;;;;;5150635;23;20205;-79
2020/12/01 05:28:17;;;;;;;43.67;22.90;;;4.10;98.30;;;;;;5150566;23;20197;-81
2020/12/01 05:30:23;;;;;;;42.77;21.50;;;4.10;98.30;;;;;;5150619;23;20276;-79
2020/12/01 05:32:30;;;;;;;43.30;21.40;;;4.10;98.30;;;;;;5150137;23;20455;-79
2020/12/01 05:34:32;;;;;;;43.00;21.67;;;4.10;98.30;;;;;;5150598;23;20212;-80
2020/12/01 05:36:36;;;;;;;48.58;22.95;;;4.10;98.30;;;;;;5150215;23;20197;-80
2020/12/01 05:38:38;;;;;;;43.78;22.60;;;4.20;98.30;;;;;;5150473;23;20698;-79
2020/12/01 05:40:49;;;;;;;47.10;24.47;;;4.10;98.30;;;;;;5149469;23;20204;-78
2020/12/01 05:42:52;;;;;;;44.10;20.58;;;4.20;98.30;;;;;;5142606;23;20492;-81
2020/12/01 05:44:58;;;;;;;43.43;21.70;;;4.20;98.30;;;;;;5150673;23;20538;-80
2020/12/01 05:47:09;;;;;;;43.78;22.90;;;4.10;98.30;;;;;;5142271;23;20456;-78
2020/12/01 05:49:30;;;;;;;43.47;21.37;;;4.20;98.30;;;;;;5149928;23;20587;-82
2020/12/01 05:51:41;;;;;;;42.60;19.80;;;4.30;98.30;;;;;;5150604;23;20445;-80
2020/12/01 05:53:54;;;;;;;52.33;24.85;;;4.30;98.30;;;;;;5142117;23;20449;-80
2020/12/01 05:56:06;;;;;;;42.25;24.98;;;4.30;98.30;;;;;;5141732;23;20278;-80
2020/12/01 05:58:12;;;;;;;44.40;25.52;;;4.20;98.30;;;;;;5142016;23;20274;-79
2020/12/01 06:00:18;;;;;;;45.90;24.35;;;4.20;98.30;;;;;;5151833;23;20198;-78
2020/12/01 06:02:25;;;;;;;43.55;21.90;;;4.20;98.30;;;;;;5150475;23;20208;-80
2020/12/01 06:04:28;;;;;;;44.95;25.27;;;4.20;98.30;;;;;;5142068;23;20209;-79
2020/12/01 06:06:41;;;;;;;42.05;24.80;;;4.20;98.30;;;;;;5150014;23;20198;-79
2020/12/01 06:08:52;;;;;;;42.13;25.08;;;4.10;98.30;;;;;;5141653;23;20220;-79
2020/12/01 06:10:59;;;;;;;45.85;24.55;;;4.10;98.30;;;;;;5149635;23;20208;-79
2020/12/01 06:13:22;;;;;;;44.47;22.08;;;4.10;98.30;;;;;;5149881;23;20201;-81
2020/12/01 06:15:25;;;;;;;44.72;22.02;;;4.20;98.30;;;;;;5149414;23;20252;-78
2020/12/01 06:17:38;;;;;;;38.20;19.00;;;4.20;98.30;;;;;;5141959;23;20229;-79
2020/12/01 06:19:52;;;;;;;48.38;23.23;;;4.20;98.30;;;;;;5149640;23;20276;-80
2020/12/01 06:22:36;;;;;;;46.30;22.73;;;4.10;98.30;;;;;;5141982;23;20700;-80
2020/12/01 06:25:14;;;;;;;42.00;22.80;;;4.10;98.30;;;;;;5149802;23;20202;-80
2020/12/01 06:27:47;;;;;;;48.03;25.50;;;4.10;98.30;;;;;;5150586;23;20226;-80
2020/12/01 06:30:24;;;;;;;46.22;21.92;;;4.20;98.30;;;;;;5149629;23;20212;-80
2020/12/01 06:33:15;;;;;;;45.22;26.02;;;4.20;98.30;;;;;;5150168;23;20882;-80
2020/12/01 06:35:32;;;;;;;41.70;20.38;;;4.10;98.30;;;;;;5073001;23;20701;-79
2020/12/01 06:37:39;;;;;;;46.95;24.70;;;4.20;98.30;;;;;;5127421;23;20202;-80
2020/12/01 06:39:48;;;;;;;42.28;21.38;;;4.10;98.30;;;;;;5149194;23;20208;-80
2020/12/01 06:41:56;;;;;;;43.53;23.38;;;4.20;98.30;;;;;;5140876;23;20236;-80
2020/12/01 06:43:58;;;;;;;48.15;23.38;;;4.20;98.30;;;;;;5148873;23;20197;-78
2020/12/01 06:46:01;;;;;;;43.88;24.25;;;4.10;98.30;;;;;;5149404;23;20221;-79
2020/12/01 06:48:11;;;;;;;42.13;24.40;;;4.10;98.30;;;;;;5140795;23;20233;-78
2020/12/01 06:50:17;;;;;;;47.87;25.70;;;4.10;98.30;;;;;;5149122;23;20449;-78
2020/12/01 06:52:19;;;;;;;47.80;27.03;;;4.10;98.30;;;;;;5140605;23;20457;-78
2020/12/01 06:54:21;;;;;;;44.30;20.45;;;4.10;98.30;;;;;;5140991;23;20528;-78
2020/12/01 06:56:23;;;;;;;44.85;22.80;;;4.10;98.30;;;;;;5140919;23;20280;-79
2020/12/01 06:58:39;;;;;;;51.27;26.40;;;4.10;98.30;;;;;;5140901;23;20594;-79
2020/12/01 07:00:43;;;;;;;44.70;24.50;;;4.10;98.30;;;;;;5149121;23;20441;-82
2020/12/01 07:02:46;;;;;;;43.30;23.73;;;4.10;98.30;;;;;;5149355;23;20228;-78
2020/12/01 07:04:49;;;;;;;42.78;22.40;;;4.10;98.30;;;;;;5149106;23;20197;-78
2020/12/01 07:06:54;;;;;;;49.83;26.80;;;4.10;98.30;;;;;;5141151;23;20571;-79
2020/12/01 07:09:05;;;;;;;60.47;32.03;;;4.10;98.30;;;;;;5140869;23;20210;-80
2020/12/01 07:11:11;;;;;;;43.38;20.60;;;4.10;98.30;;;;;;5141054;23;20595;-82
2020/12/01 07:13:21;;;;;;;48.35;21.90;;;4.10;98.30;;;;;;5149580;23;20514;-79
2020/12/01 07:15:34;;;;;;;49.72;25.92;;;4.20;98.30;;;;;;5148785;23;20545;-79
2020/12/01 07:18:00;;;;;;;48.97;23.02;;;4.20;98.30;;;;;;5149930;23;20256;-82
2020/12/01 07:20:19;;;;;;;50.63;20.57;;;4.20;98.30;;;;;;5141812;23;20202;-81
2020/12/01 07:22:31;;;;;;;51.97;27.80;;;4.20;98.30;;;;;;5149781;23;20476;-80
2020/12/01 07:24:40;;;;;;;43.87;21.57;;;4.20;98.30;;;;;;5149869;23;20201;-80
2020/12/01 07:26:48;;;;;;;48.20;28.42;;;4.20;98.30;;;;;;5141534;23;20464;-79
2020/12/01 07:29:07;;;;;;;47.58;22.40;;;4.20;98.30;;;;;;5141016;23;20213;-79
2020/12/01 07:31:21;;;;;;;45.70;24.45;;;4.20;98.30;;;;;;5141448;23;20256;-80
2020/12/01 07:33:28;;;;;;;44.90;24.05;;;4.20;98.30;;;;;;5149857;23;20205;-81
2020/12/01 07:35:36;;;;;;;47.92;26.92;;;4.20;98.30;;;;;;5140911;23;20714;-78
2020/12/01 07:37:56;;;;;;;46.85;23.98;;;4.20;98.30;;;;;;5149155;23;20277;-80
2020/12/01 07:40:00;;;;;;;47.50;26.60;;;4.20;98.30;;;;;;5149086;23;20193;-80
2020/12/01 07:42:21;;;;;;;50.78;25.67;;;4.10;98.30;;;;;;5149499;23;20268;-80
2020/12/01 07:44:25;;;;;;;52.33;27.73;;;4.10;98.30;;;;;;5149496;23;20284;-79
2020/12/01 07:46:27;;;;;;;47.63;25.20;;;4.20;98.30;;;;;;5141682;23;20713;-81
2020/12/01 07:48:31;;;;;;;49.75;24.80;;;4.20;98.30;;;;;;5140667;23;20463;-80
2020/12/01 07:50:33;;;;;;;45.67;24.10;;;4.20;98.30;;;;;;5149273;23;20293;-79
2020/12/01 07:52:39;;;;;;;47.60;25.20;;;4.20;98.30;;;;;;5149154;23;20204;-79
2020/12/01 07:54:45;;;;;;;45.05;23.52;;;4.20;98.30;;;;;;5149355;23;20229;-80
2020/12/01 07:56:47;;;;;;;43.63;19.83;;;4.20;98.30;;;;;;5150376;23;20201;-82
2020/12/01 07:59:11;;;;;;;42.20;21.07;;;4.30;98.30;;;;;;5149973;23;20198;-82
2020/12/01 08:01:16;;;;;;;44.93;22.63;;;4.30;98.30;;;;;;5150717;23;20456;-80
2020/12/01 08:03:24;;;;;;;45.70;21.80;;;4.30;98.30;;;;;;5149473;23;20771;-79
2020/12/01 08:05:26;;;;;;;39.73;20.13;;;4.20;98.30;;;;;;5149082;23;20455;-80
2020/12/01 08:07:28;;;;;;;39.97;18.80;;;4.20;98.30;;;;;;5149391;23;20978;-81
2020/12/01 08:09:30;;;;;;;42.00;19.35;;;4.30;98.30;;;;;;5141808;23;20456;-81
2020/12/01 08:11:33;;;;;;;43.33;23.17;;;4.30;98.30;;;;;;5149965;23;20209;-81
2020/12/01 08:13:37;;;;;;;42.28;22.13;;;4.30;98.30;;;;;;5142210;23;20536;-81
2020/12/01 08:15:40;;;;;;;48.67;22.33;;;4.30;98.30;;;;;;5142171;23;20216;-81
2020/12/01 08:17:43;;;;;;;42.65;23.95;;;4.30;98.30;;;;;;5142184;23;20300;-81
2020/12/01 08:19:47;;;;;;;39.17;19.77;;;4.20;98.30;;;;;;5151375;23;20205;-81
2020/12/01 08:21:49;;;;;;;36.88;20.17;;;4.30;98.30;;;;;;5143855;23;20531;-81
2020/12/01 08:23:54;;;;;;;43.42;23.35;;;4.30;98.30;;;;;;5142566;23;20260;-81
2020/12/01 08:26:04;;;;;;;42.50;19.88;;;4.30;98.30;;;;;;5151158;23;20256;-81
2020/12/01 08:28:22;;;;;;;40.97;22.23;;;4.30;98.30;;;;;;5142701;23;20205;-81
2020/12/01 08:30:31;;;;;;;42.70;20.08;;;4.30;98.30;;;;;;5151682;23;20209;-81
2020/12/01 08:32:37;;;;;;;41.20;20.30;;;4.30;98.30;;;;;;5142760;23;20249;-81
2020/12/01 08:34:46;;;;;;;46.97;22.02;;;4.30;98.30;;;;;;5143012;23;20451;-81
2020/12/01 08:37:01;;;;;;;47.87;25.90;;;4.30;98.30;;;;;;5143019;23;20237;-81
2020/12/01 08:39:32;;;;;;;38.90;18.48;;;4.40;98.30;;;;;;5142277;23;20457;-81
2020/12/01 08:41:47;;;;;;;50.80;25.67;;;4.30;98.30;;;;;;5151374;23;20199;-81
2020/12/01 08:43:54;;;;;;;43.88;21.00;;;4.30;98.30;;;;;;5150528;23;20276;-81
2020/12/01 08:46:06;;;;;;;44.37;23.80;;;4.20;98.30;;;;;;5149895;23;20203;-81
2020/12/01 08:48:21;;;;;;;40.80;23.52;;;4.30;98.30;;;;;;5141232;23;20523;-81
2020/12/01 08:50:28;;;;;;;49.60;26.90;;;4.20;98.30;;;;;;5149193;23;20281;-80
2020/12/01 08:52:39;;;;;;;60.35;34.60;;;4.20;98.30;;;;;;5149811;23;20776;-80
2020/12/01 08:54:54;;;;;;;48.92;26.08;;;4.20;98.30;;;;;;5141378;23;20284;-80
2020/12/01 08:57:20;;;;;;;50.10;24.87;;;4.30;98.30;;;;;;5149669;23;20527;-81
2020/12/01 08:59:27;;;;;;;50.00;25.33;;;4.30;98.30;;;;;;5149170;23;20805;-80
2020/12/01 09:01:38;;;;;;;44.13;22.00;;;4.30;98.30;;;;;;5141270;23;20459;-80
2020/12/01 09:03:54;;;;;;;44.27;23.07;;;4.30;98.30;;;;;;5149359;23;20545;-81
2020/12/01 09:05:57;;;;;;;43.78;22.48;;;4.40;98.30;;;;;;5141456;23;20449;-80
2020/12/01 09:08:30;;;;;;;44.45;21.23;;;4.30;98.30;;;;;;5150234;23;20200;-80
2020/12/01 09:10:33;;;;;;;42.80;25.48;;;4.30;98.30;;;;;;5150566;23;20285;-80
2020/12/01 09:12:39;;;;;;;45.97;19.10;;;4.30;98.30;;;;;;5142501;23;20212;-80
2020/12/01 09:17:23;;;;;;;43.30;23.73;;;4.30;98.30;;;;;;5105699;23;20205;-80
2020/12/01 09:19:55;;;;;;;41.35;22.40;;;4.20;98.30;;;;;;5150776;23;20205;-80
2020/12/01 09:22:05;;;;;;;40.20;22.73;;;4.30;98.30;;;;;;5151198;23;20772;-80
2020/12/01 09:24:15;;;;;;;41.53;22.30;;;4.20;98.30;;;;;;5142849;23;20735;-81
2020/12/01 09:26:20;;;;;;;45.63;23.05;;;4.30;98.30;;;;;;5142745;23;20526;-81
2020/12/01 09:28:25;;;;;;;40.15;22.45;;;4.30;98.30;;;;;;5150264;23;20461;-80
2020/12/01 09:30:32;;;;;;;37.28;19.15;;;4.30;98.30;;;;;;5142325;23;20278;-80
2020/12/01 09:32:33;;;;;;;42.63;21.05;;;4.30;98.30;;;;;;5142292;23;20238;-80
2020/12/01 09:34:36;;;;;;;41.90;23.03;;;4.40;98.30;;;;;;5150733;23;20277;-81
2020/12/01 09:36:38;;;;;;;38.93;19.83;;;4.40;98.30;;;;;;5150690;23;20445;-80
2020/12/01 09:38:40;;;;;;;34.77;19.63;;;4.30;98.30;;;;;;5150009;23;20452;-80
2020/12/01 09:40:45;;;;;;;35.77;22.23;;;4.30;98.30;;;;;;5142729;23;20545;-80
2020/12/01 09:42:51;;;;;;;36.43;21.00;;;4.40;98.30;;;;;;5142930;23;20556;-81
2020/12/01 09:45:09;;;;;;;44.08;23.30;;;4.40;98.30;;;;;;5142563;23;20488;-80
2020/12/01 09:47:15;;;;;;;38.00;17.97;;;4.40;98.30;;;;;;5150889;23;20202;-81
2020/12/01 09:49:17;;;;;;;36.80;18.17;;;4.40;98.30;;;;;;5142266;23;20460;-80
2020/12/01 09:51:20;;;;;;;37.87;21.80;;;4.30;98.30;;;;;;5150299;23;20474;-80
2020/12/01 09:53:30;;;;;;;41.50;20.53;;;4.40;98.30;;;;;;5150323;23;20459;-80
2020/12/01 09:58:03;;;;;;;38.70;21.50;;;4.50;98.30;;;;;;5127759;23;20453;-80
2020/12/01 10:00:29;;;;;;;34.65;16.73;;;4.60;98.30;;;;;;5150150;23;20470;-80
2020/12/01 10:09:37;;;;;;;39.87;19.07;;;4.50;98.30;;;;;;5149661;23;20545;-80
2020/12/01 10:12:13;;;;;;;35.15;19.92;;;4.60;98.30;;;;;;5150303;23;20499;-80
2020/12/01 10:15:21;;;;;;;40.13;24.13;;;4.70;98.30;;;;;;5141725;23;20281;-81
2020/12/01 10:19:52;;;;;;;36.57;18.23;;;4.70;98.30;;;;;;5141139;23;20447;-80
2020/12/01 10:27:07;;;;;;;30.75;17.70;;;4.70;98.30;;;;;;5154639;23;20514;-80
2020/12/01 10:36:17;;;;;;;35.97;20.60;;;4.70;98.30;;;;;;5131484;23;20808;-81
2020/12/01 10:38:19;;;;;;;37.75;18.95;;;4.70;98.30;;;;;;5142169;23;20285;-81
2020/12/01 10:40:27;;;;;;;34.38;18.13;;;4.70;98.30;;;;;;5142193;23;20202;-81
2020/12/01 10:42:29;;;;;;;32.22;16.45;;;4.60;98.30;;;;;;5150496;23;20202;-81
2020/12/01 10:44:31;;;;;;;39.60;22.05;;;4.60;98.30;;;;;;5142250;23;20229;-81
2020/12/01 10:46:34;;;;;;;34.20;17.50;;;4.60;98.30;;;;;;5150436;23;20210;-80
2020/12/01 10:48:36;;;;;;;36.90;18.23;;;4.60;98.30;;;;;;5150738;23;20452;-81
2020/12/01 10:50:37;;;;;;;29.70;18.37;;;4.70;98.30;;;;;;5142028;23;20461;-81
2020/12/01 10:52:40;;;;;;;41.93;19.83;;;4.80;98.30;;;;;;5142106;23;20453;-81
2020/12/01 10:54:42;;;;;;;37.70;19.20;;;4.90;98.30;;;;;;5150526;23;21073;-81
2020/12/01 10:56:47;;;;;;;35.07;18.27;;;4.80;98.30;;;;;;5150431;23;20457;-81
2020/12/01 10:58:48;;;;;;;39.60;22.00;;;4.70;98.30;;;;;;5150437;23;21040;-81
2020/12/01 11:00:51;;;;;;;42.60;19.33;;;4.70;98.30;;;;;;5142322;23;20282;-81
2020/12/01 11:02:54;;;;;;;36.05;18.60;;;4.70;98.30;;;;;;5150381;23;20205;-81
2020/12/01 11:04:56;;;;;;;36.93;18.60;;;4.70;98.30;;;;;;5142399;23;20540;-81
2020/12/01 11:06:58;;;;;;;46.03;23.95;;;4.70;98.30;;;;;;5142030;23;20457;-80
2020/12/01 11:09:00;;;;;;;40.70;21.17;;;4.70;98.30;;;;;;5141979;23;20673;-81
2020/12/01 11:11:02;;;;;;;41.77;22.40;;;4.70;98.30;;;;;;5141918;23;20552;-81
2020/12/01 11:13:04;;;;;;;38.80;19.70;;;4.60;98.30;;;;;;5141942;23;20510;-81
2020/12/01 11:15:06;;;;;;;38.37;18.83;;;4.60;98.30;;;;;;5150430;23;20446;-81
2020/12/01 11:17:08;;;;;;;43.93;23.50;;;4.70;98.30;;;;;;5149868;23;20453;-80